Time;durP1;ratioP1;P1;durP2;ratioP2;P2;SDS_P1;SDS_P2;PMS_P1;PMS_P2;Temp;Humidity;BMP_temperature;BMP_pressure;BME280_temperature;BME280_humidity;BME280_pressure;Samples;Min_cycle;Max_cycle;Signal;HPM_P1;HPM_P2
2023/03/29 00:00:59;;;;;;;9.80;9.50;;;4.50;99.90;;;;;;5108413;28;20249;-84
2023/03/29 00:03:29;;;;;;;9.80;9.50;;;4.50;99.90;;;;;;5107037;28;20226;-83
2023/03/29 00:06:07;;;;;;;10.10;9.80;;;4.50;99.90;;;;;;5105574;28;20711;-84
2023/03/29 00:08:36;;;;;;;10.13;9.83;;;4.50;99.90;;;;;;5105666;28;20710;-84
2023/03/29 00:11:06;;;;;;;10.00;9.70;;;4.40;99.90;;;;;;5105836;28;20235;-83
2023/03/29 00:13:35;;;;;;;9.90;9.60;;;4.40;99.90;;;;;;5105316;28;20268;-82
2023/03/29 00:16:05;;;;;;;10.00;9.70;;;4.50;99.90;;;;;;5105936;28;20222;-83
2023/03/29 00:18:34;;;;;;;9.60;9.30;;;4.40;99.90;;;;;;5105506;28;20248;-84
2023/03/29 00:23:51;;;;;;;9.93;9.63;;;4.40;99.90;;;;;;5105179;28;20221;-83
2023/03/29 00:26:20;;;;;;;10.10;9.80;;;4.40;99.90;;;;;;5105781;28;20289;-84
2023/03/29 00:28:50;;;;;;;10.00;9.70;;;4.40;99.90;;;;;;5106245;28;20256;-83
2023/03/29 00:31:20;;;;;;;10.10;9.80;;;4.40;99.90;;;;;;5113732;28;20221;-83
2023/03/29 00:33:48;;;;;;;10.20;9.90;;;4.40;99.90;;;;;;5114659;28;20234;-83
2023/03/29 00:39:05;;;;;;;9.90;9.60;;;4.40;99.90;;;;;;5104996;28;20225;-83
2023/03/29 00:41:34;;;;;;;9.80;9.50;;;4.40;99.90;;;;;;5107570;28;20229;-84
2023/03/29 00:44:04;;;;;;;10.10;9.80;;;4.40;99.90;;;;;;5106793;28;20281;-84
2023/03/29 00:46:33;;;;;;;10.00;9.70;;;4.40;99.90;;;;;;5106769;28;20231;-83
2023/03/29 00:49:05;;;;;;;9.90;9.60;;;4.40;99.90;;;;;;5106815;28;20234;-83
2023/03/29 00:51:42;;;;;;;10.00;9.70;;;4.40;99.90;;;;;;5107229;28;20229;-84
2023/03/29 00:54:23;;;;;;;10.17;9.87;;;4.40;99.90;;;;;;5107205;28;20283;-83
2023/03/29 00:56:51;;;;;;;10.00;9.70;;;4.40;99.90;;;;;;5107916;28;20217;-83
2023/03/29 00:59:28;;;;;;;10.03;9.73;;;4.40;99.90;;;;;;5108160;28;20252;-83
2023/03/29 01:02:05;;;;;;;10.00;9.70;;;4.50;99.90;;;;;;5109882;28;20288;-83
2023/03/29 01:04:39;;;;;;;10.10;9.80;;;4.50;99.90;;;;;;5116098;28;20217;-82
2023/03/29 01:07:16;;;;;;;10.03;9.73;;;4.60;99.90;;;;;;5120057;28;20225;-83
2023/03/29 01:09:51;;;;;;;10.00;9.70;;;4.60;99.90;;;;;;5120430;28;20247;-83
2023/03/29 01:12:34;;;;;;;9.90;9.60;;;4.60;99.90;;;;;;5120579;28;20289;-83
2023/03/29 01:15:08;;;;;;;9.70;9.40;;;4.70;99.90;;;;;;5120223;28;20226;-83
2023/03/29 01:17:37;;;;;;;9.80;9.50;;;4.70;99.90;;;;;;5121062;28;20202;-82
2023/03/29 01:20:19;;;;;;;9.90;9.60;;;4.80;99.90;;;;;;5120521;28;20233;-82
2023/03/29 01:23:14;;;;;;;9.60;9.30;;;4.70;99.90;;;;;;5120790;28;20213;-82
2023/03/29 01:25:58;;;;;;;10.03;9.73;;;4.80;99.90;;;;;;5120324;28;20232;-82
2023/03/29 01:28:36;;;;;;;9.70;9.40;;;4.70;99.90;;;;;;5125293;28;20251;-83
2023/03/29 01:31:08;;;;;;;10.07;9.77;;;4.70;99.90;;;;;;5129624;27;20233;-82
2023/03/29 01:33:43;;;;;;;9.70;9.40;;;4.70;99.90;;;;;;5139592;28;20251;-83
2023/03/29 01:39:03;;;;;;;9.70;9.40;;;4.60;99.90;;;;;;5132909;28;20221;-83
2023/03/29 01:41:41;;;;;;;9.80;9.50;;;4.60;99.90;;;;;;5126266;28;20225;-83
2023/03/29 01:44:17;;;;;;;9.67;9.37;;;4.60;99.90;;;;;;5108900;28;21022;-83
2023/03/29 01:46:48;;;;;;;9.83;9.53;;;4.70;99.90;;;;;;5116292;28;20205;-83
2023/03/29 01:49:25;;;;;;;9.97;9.67;;;4.70;99.90;;;;;;5116663;28;20229;-83
2023/03/29 01:52:04;;;;;;;9.97;9.67;;;4.60;99.90;;;;;;5122350;28;20224;-84
2023/03/29 01:54:37;;;;;;;9.70;9.40;;;4.60;99.90;;;;;;5124959;28;20236;-84
2023/03/29 01:57:09;;;;;;;9.97;9.67;;;4.60;99.90;;;;;;5124414;28;20235;-84
2023/03/29 01:59:42;;;;;;;9.90;9.60;;;4.60;99.90;;;;;;5124120;28;20232;-84
2023/03/29 02:02:14;;;;;;;10.03;9.73;;;4.50;99.90;;;;;;5124240;28;20271;-83
2023/03/29 02:04:51;;;;;;;10.10;9.80;;;4.50;99.90;;;;;;5125004;28;20229;-83
2023/03/29 02:07:29;;;;;;;9.93;9.63;;;4.50;99.90;;;;;;5124530;28;20284;-83
2023/03/29 02:09:58;;;;;;;10.10;9.80;;;4.40;99.90;;;;;;5124593;28;20228;-83
2023/03/29 02:12:26;;;;;;;10.20;9.90;;;4.40;99.90;;;;;;5127783;28;20247;-83
2023/03/29 02:15:05;;;;;;;10.30;10.00;;;4.30;99.90;;;;;;5125091;27;20232;-84
2023/03/29 02:17:34;;;;;;;10.33;10.03;;;4.30;99.90;;;;;;5125097;28;20228;-83
2023/03/29 02:20:13;;;;;;;10.30;10.00;;;4.20;99.90;;;;;;5124727;28;20221;-84
2023/03/29 02:22:51;;;;;;;10.20;9.90;;;4.20;99.90;;;;;;5124959;28;20229;-83
2023/03/29 02:25:21;;;;;;;10.37;10.07;;;4.20;99.90;;;;;;5125632;27;20232;-84
2023/03/29 02:27:49;;;;;;;10.60;10.30;;;4.20;99.90;;;;;;5123645;28;20213;-83
2023/03/29 02:33:16;;;;;;;10.57;10.27;;;4.20;99.90;;;;;;5125400;28;20255;-83
2023/03/29 02:35:53;;;;;;;10.60;10.30;;;4.20;99.90;;;;;;5126708;28;20252;-84
2023/03/29 02:38:24;;;;;;;10.40;10.10;;;4.20;99.90;;;;;;5140288;27;20215;-83
2023/03/29 02:40:52;;;;;;;10.40;10.10;;;4.30;99.90;;;;;;5130984;28;20216;-84
2023/03/29 02:43:21;;;;;;;10.70;10.40;;;4.30;99.90;;;;;;5134825;28;20251;-83
2023/03/29 02:46:00;;;;;;;11.00;10.70;;;4.30;99.90;;;;;;5139539;28;20260;-83
2023/03/29 02:48:30;;;;;;;11.13;10.83;;;4.30;99.90;;;;;;5132157;28;20223;-82
2023/03/29 02:53:54;;;;;;;11.10;10.80;;;4.20;99.90;;;;;;5123894;28;20236;-83
2023/03/29 02:56:24;;;;;;;11.00;10.70;;;4.10;99.90;;;;;;5127504;28;20331;-83
2023/03/29 02:58:53;;;;;;;11.00;10.70;;;4.10;99.90;;;;;;5127431;28;20288;-83
2023/03/29 03:01:31;;;;;;;10.90;10.60;;;4.00;99.90;;;;;;5127147;28;20220;-85
2023/03/29 03:04:01;;;;;;;10.83;10.53;;;4.00;99.90;;;;;;5127617;28;20221;-84
2023/03/29 03:06:30;;;;;;;10.60;10.30;;;4.00;99.90;;;;;;5126680;28;20328;-82
2023/03/29 03:09:00;;;;;;;10.63;10.33;;;4.00;99.90;;;;;;5128217;28;20239;-82
2023/03/29 03:11:29;;;;;;;10.53;10.23;;;4.10;99.90;;;;;;5128575;28;20236;-84
2023/03/29 03:13:58;;;;;;;10.40;10.10;;;4.10;99.90;;;;;;5127346;28;20293;-83
2023/03/29 03:19:15;;;;;;;10.70;10.40;;;4.10;99.90;;;;;;5136645;28;20270;-84
2023/03/29 03:21:45;;;;;;;10.90;10.60;;;4.10;99.90;;;;;;5138909;28;20245;-83
2023/03/29 03:24:14;;;;;;;10.40;10.10;;;4.10;99.90;;;;;;5132395;28;20237;-84
2023/03/29 03:26:45;;;;;;;10.70;10.40;;;4.10;99.90;;;;;;5128705;28;20398;-83
2023/03/29 03:29:13;;;;;;;10.50;10.20;;;4.10;99.90;;;;;;5127851;28;20229;-83
2023/03/29 03:31:45;;;;;;;10.20;9.90;;;4.10;99.90;;;;;;5127472;28;20236;-83
2023/03/29 03:34:12;;;;;;;10.40;10.10;;;4.10;99.90;;;;;;5130378;28;20225;-84
2023/03/29 03:36:41;;;;;;;10.20;9.90;;;4.10;99.90;;;;;;5133046;28;20229;-83
2023/03/29 03:39:10;;;;;;;9.97;9.67;;;4.10;99.90;;;;;;5135287;28;20292;-84
2023/03/29 03:41:39;;;;;;;10.03;9.73;;;4.10;99.90;;;;;;5133436;27;20225;-84
2023/03/29 03:44:09;;;;;;;10.40;10.10;;;4.10;99.90;;;;;;5132871;28;20228;-85
2023/03/29 03:46:38;;;;;;;10.20;9.90;;;4.10;99.90;;;;;;5131136;28;20319;-84
2023/03/29 03:49:10;;;;;;;10.20;9.90;;;4.10;99.90;;;;;;5127720;28;20232;-84
2023/03/29 03:51:40;;;;;;;10.10;9.80;;;4.10;99.90;;;;;;5127287;28;20286;-84
2023/03/29 03:54:09;;;;;;;10.57;10.27;;;4.10;99.90;;;;;;5127431;28;20225;-84
2023/03/29 03:56:38;;;;;;;10.60;10.30;;;4.10;99.90;;;;;;5127132;28;20240;-84
2023/03/29 03:59:08;;;;;;;10.27;9.97;;;4.20;99.90;;;;;;5126974;28;20224;-84
2023/03/29 04:01:42;;;;;;;10.20;9.90;;;4.20;99.90;;;;;;5127357;28;20228;-84
2023/03/29 04:04:16;;;;;;;10.43;10.13;;;4.20;99.90;;;;;;5126995;28;20233;-84
2023/03/29 04:06:45;;;;;;;10.70;10.40;;;4.30;99.90;;;;;;5128854;28;20252;-84
2023/03/29 04:09:14;;;;;;;10.50;10.20;;;4.20;99.90;;;;;;5127971;28;20221;-84
2023/03/29 04:11:41;;;;;;;10.17;9.87;;;4.30;99.90;;;;;;5132759;28;20209;-84
2023/03/29 04:14:14;;;;;;;10.50;10.20;;;4.30;99.90;;;;;;5130332;28;20225;-84
2023/03/29 04:16:42;;;;;;;10.37;10.07;;;4.30;99.90;;;;;;5127514;28;20228;-84
2023/03/29 04:21:59;;;;;;;9.83;9.53;;;4.30;99.90;;;;;;5129260;28;20236;-83
2023/03/29 04:24:28;;;;;;;10.07;9.77;;;4.30;99.90;;;;;;5131727;28;20236;-84
2023/03/29 04:26:58;;;;;;;10.00;9.70;;;4.30;99.90;;;;;;5128273;28;20224;-84
2023/03/29 04:29:27;;;;;;;10.37;10.07;;;4.30;99.90;;;;;;5125510;28;20285;-84
2023/03/29 04:31:57;;;;;;;9.90;9.60;;;4.30;99.90;;;;;;5127627;28;20225;-84
2023/03/29 04:34:38;;;;;;;10.13;9.83;;;4.30;99.90;;;;;;5125709;28;20229;-84
2023/03/29 04:37:09;;;;;;;10.10;9.80;;;4.30;99.90;;;;;;5125644;28;20277;-84
2023/03/29 04:39:36;;;;;;;10.00;9.70;;;4.30;99.90;;;;;;5125308;28;20247;-84
2023/03/29 04:42:04;;;;;;;9.97;9.67;;;4.40;99.90;;;;;;5125603;27;20259;-84
2023/03/29 04:44:33;;;;;;;10.17;9.87;;;4.30;99.90;;;;;;5125744;28;20254;-84
2023/03/29 04:47:02;;;;;;;10.20;9.90;;;4.30;99.90;;;;;;5125862;28;20232;-84
2023/03/29 04:52:19;;;;;;;10.77;10.47;;;4.30;99.90;;;;;;5128129;27;20231;-84
2023/03/29 04:54:49;;;;;;;10.40;10.10;;;4.30;99.90;;;;;;5132529;28;20228;-83
2023/03/29 04:57:18;;;;;;;10.57;10.27;;;4.30;99.90;;;;;;5137135;27;20229;-84
2023/03/29 04:59:47;;;;;;;10.43;10.13;;;4.40;99.90;;;;;;5135177;28;20229;-83
2023/03/29 05:02:17;;;;;;;10.80;10.50;;;4.30;99.90;;;;;;5135157;28;20236;-83
2023/03/29 05:04:49;;;;;;;10.90;10.60;;;4.30;99.90;;;;;;5127990;28;20238;-83
2023/03/29 05:07:17;;;;;;;11.20;10.80;;;4.30;99.90;;;;;;5114606;28;20226;-83
2023/03/29 05:09:46;;;;;;;10.80;10.50;;;4.30;99.90;;;;;;5114010;28;20238;-83
2023/03/29 05:12:14;;;;;;;10.43;10.13;;;4.30;99.90;;;;;;5115009;28;20228;-83
2023/03/29 05:14:43;;;;;;;10.80;10.50;;;4.30;99.90;;;;;;5114555;28;20226;-83
2023/03/29 05:17:13;;;;;;;10.90;10.60;;;4.30;99.90;;;;;;5114965;28;20249;-84
2023/03/29 05:19:43;;;;;;;10.70;10.40;;;4.30;99.90;;;;;;5114690;28;20240;-82
2023/03/29 05:22:15;;;;;;;10.50;10.20;;;4.30;99.90;;;;;;5114683;28;20304;-84
2023/03/29 05:24:43;;;;;;;10.60;10.30;;;4.20;99.90;;;;;;5113989;28;20260;-83
2023/03/29 05:27:11;;;;;;;10.67;10.37;;;4.20;99.90;;;;;;5111751;28;20256;-83
2023/03/29 05:29:41;;;;;;;10.80;10.50;;;4.10;99.90;;;;;;5112944;28;20243;-83
2023/03/29 05:32:10;;;;;;;10.87;10.57;;;4.10;99.90;;;;;;5113830;28;20228;-84
2023/03/29 05:34:39;;;;;;;10.90;10.60;;;4.10;99.90;;;;;;5112781;28;20320;-83
2023/03/29 05:37:09;;;;;;;10.53;10.23;;;4.10;99.90;;;;;;5111601;28;20260;-82
2023/03/29 05:39:47;;;;;;;10.50;10.20;;;4.10;99.90;;;;;;5110600;28;20240;-84
2023/03/29 05:42:21;;;;;;;10.20;9.90;;;4.20;99.90;;;;;;5110938;28;20237;-82
2023/03/29 05:44:48;;;;;;;10.60;10.30;;;4.20;99.90;;;;;;5110151;28;20245;-81
2023/03/29 05:47:16;;;;;;;10.70;10.40;;;4.10;99.90;;;;;;5110873;28;20233;-82
2023/03/29 05:49:45;;;;;;;10.50;10.20;;;4.10;99.90;;;;;;5109761;28;20240;-83
2023/03/29 05:52:15;;;;;;;10.57;10.27;;;4.10;99.90;;;;;;5110441;28;20388;-88
2023/03/29 05:54:47;;;;;;;10.60;10.30;;;4.10;99.90;;;;;;5107647;28;20232;-87
2023/03/29 05:57:15;;;;;;;10.50;10.20;;;4.20;99.90;;;;;;5105440;28;20256;-87
2023/03/29 05:59:45;;;;;;;10.30;10.00;;;4.20;99.90;;;;;;5106741;28;20221;-87
2023/03/29 06:02:14;;;;;;;10.30;10.00;;;4.30;99.90;;;;;;5111945;28;20294;-88
2023/03/29 06:04:43;;;;;;;10.43;10.13;;;4.30;99.90;;;;;;5130686;28;20341;-84
2023/03/29 06:07:15;;;;;;;10.50;10.20;;;4.40;99.90;;;;;;5131646;28;20224;-84
2023/03/29 06:09:44;;;;;;;10.40;10.10;;;4.40;99.90;;;;;;5131554;28;20228;-85
2023/03/29 06:12:12;;;;;;;10.33;10.03;;;4.40;99.90;;;;;;5129246;28;20229;-85
2023/03/29 06:14:40;;;;;;;10.57;10.27;;;4.40;99.90;;;;;;5124439;28;20230;-84
2023/03/29 06:17:11;;;;;;;10.60;10.30;;;4.40;99.90;;;;;;5129236;28;20248;-84
2023/03/29 06:19:40;;;;;;;10.50;10.20;;;4.40;99.90;;;;;;5130664;28;20232;-84
2023/03/29 06:22:10;;;;;;;10.40;10.10;;;4.50;99.90;;;;;;5132673;28;20282;-84
2023/03/29 06:24:39;;;;;;;10.27;9.97;;;4.50;99.90;;;;;;5134007;28;20248;-85
2023/03/29 06:27:18;;;;;;;10.30;10.00;;;4.50;99.90;;;;;;5130286;28;20231;-84
2023/03/29 06:29:46;;;;;;;10.30;10.00;;;4.50;99.90;;;;;;5115003;28;20236;-85
2023/03/29 06:32:15;;;;;;;10.30;10.00;;;4.50;99.90;;;;;;5128346;28;20208;-84
2023/03/29 06:34:45;;;;;;;10.40;10.10;;;4.50;99.90;;;;;;5131294;28;20248;-84
2023/03/29 06:37:14;;;;;;;10.30;10.00;;;4.50;99.90;;;;;;5129322;28;20247;-84
2023/03/29 06:39:44;;;;;;;10.40;10.10;;;4.60;99.90;;;;;;5129725;28;20264;-84
2023/03/29 06:42:25;;;;;;;10.33;10.03;;;4.60;99.90;;;;;;5128317;28;20283;-84
2023/03/29 06:44:53;;;;;;;10.60;10.30;;;4.60;99.90;;;;;;5108800;28;20301;-85
2023/03/29 06:47:23;;;;;;;10.37;10.07;;;4.70;99.90;;;;;;5106878;28;20304;-85
2023/03/29 06:49:50;;;;;;;10.30;10.00;;;4.80;99.90;;;;;;5105853;28;20230;-85
2023/03/29 06:52:20;;;;;;;10.30;10.00;;;4.80;99.90;;;;;;5108443;28;20214;-83
2023/03/29 06:54:49;;;;;;;10.50;10.20;;;4.80;99.90;;;;;;5114798;28;20240;-84
2023/03/29 06:57:27;;;;;;;10.33;10.03;;;4.90;99.90;;;;;;5128444;28;20331;-85
2023/03/29 06:59:57;;;;;;;10.23;9.93;;;4.90;99.90;;;;;;5131139;27;20233;-84
2023/03/29 07:02:27;;;;;;;10.47;10.17;;;5.00;99.90;;;;;;5132231;28;20229;-84
2023/03/29 07:04:56;;;;;;;10.47;10.17;;;5.00;99.90;;;;;;5129506;28;20259;-84
2023/03/29 07:07:32;;;;;;;10.40;10.10;;;5.10;99.90;;;;;;5132102;28;20229;-83
2023/03/29 07:10:04;;;;;;;10.27;9.97;;;5.10;99.90;;;;;;5138084;28;20221;-83
2023/03/29 07:12:44;;;;;;;10.07;9.77;;;5.20;99.90;;;;;;5131954;28;20300;-84
2023/03/29 07:15:24;;;;;;;10.20;9.90;;;5.20;99.90;;;;;;5130161;28;20232;-84
2023/03/29 07:17:51;;;;;;;10.03;9.73;;;5.30;99.90;;;;;;5130632;28;20304;-84
2023/03/29 07:20:21;;;;;;;10.30;10.00;;;5.30;99.90;;;;;;5128688;28;20268;-86
2023/03/29 07:22:50;;;;;;;10.30;10.00;;;5.40;99.90;;;;;;5131876;28;20276;-84
2023/03/29 07:25:18;;;;;;;9.90;9.60;;;5.50;99.90;;;;;;5132817;28;20225;-83
2023/03/29 07:27:52;;;;;;;9.87;9.57;;;5.50;99.90;;;;;;5133174;28;20232;-83
2023/03/29 07:30:26;;;;;;;10.00;9.70;;;5.60;99.90;;;;;;5132876;27;20229;-83
2023/03/29 07:32:54;;;;;;;10.17;9.87;;;5.70;99.90;;;;;;5133383;28;20223;-83
2023/03/29 07:35:24;;;;;;;10.20;9.90;;;5.70;99.90;;;;;;5134052;28;20226;-84
2023/03/29 07:37:54;;;;;;;10.20;9.90;;;5.90;99.90;;;;;;5138328;27;20240;-84
2023/03/29 07:40:23;;;;;;;10.30;10.00;;;6.00;99.90;;;;;;5115433;28;20255;-84
2023/03/29 07:43:06;;;;;;;10.20;9.90;;;6.10;99.90;;;;;;5114472;28;20240;-83
2023/03/29 07:45:33;;;;;;;10.00;9.70;;;6.20;99.90;;;;;;5113843;28;20271;-84
2023/03/29 07:48:01;;;;;;;10.10;9.80;;;6.30;99.90;;;;;;5113024;28;20272;-84
2023/03/29 07:50:31;;;;;;;10.00;9.70;;;6.40;99.90;;;;;;5112133;28;20233;-84
2023/03/29 07:53:02;;;;;;;10.10;9.80;;;6.50;99.90;;;;;;5111548;28;20287;-85
2023/03/29 07:55:31;;;;;;;10.20;9.90;;;6.60;99.90;;;;;;5112044;28;20229;-83
2023/03/29 07:58:03;;;;;;;10.00;9.70;;;6.70;99.90;;;;;;5111381;28;20238;-84
2023/03/29 08:00:31;;;;;;;10.00;9.70;;;6.90;99.90;;;;;;5111337;28;20229;-84
2023/03/29 08:03:00;;;;;;;9.83;9.53;;;6.90;99.90;;;;;;5112429;28;20218;-83
2023/03/29 08:05:28;;;;;;;10.00;9.70;;;6.90;99.90;;;;;;5111891;28;20301;-84
2023/03/29 08:07:58;;;;;;;10.20;9.90;;;7.00;99.90;;;;;;5111018;28;20241;-84
2023/03/29 08:10:27;;;;;;;9.77;9.47;;;7.10;99.90;;;;;;5109971;28;20329;-83
2023/03/29 08:12:56;;;;;;;10.00;9.70;;;7.20;99.90;;;;;;5111129;28;20283;-84
2023/03/29 08:15:29;;;;;;;9.73;9.43;;;7.30;99.90;;;;;;5111498;28;20340;-84
2023/03/29 08:17:57;;;;;;;10.00;9.70;;;7.30;99.90;;;;;;5110468;28;20260;-85
2023/03/29 08:20:24;;;;;;;9.90;9.60;;;7.50;99.90;;;;;;5109848;28;20272;-85
2023/03/29 08:22:54;;;;;;;9.83;9.53;;;7.50;99.90;;;;;;5109858;28;20217;-82
2023/03/29 08:25:24;;;;;;;9.87;9.57;;;7.70;99.90;;;;;;5113282;28;20260;-84
2023/03/29 08:27:54;;;;;;;10.20;9.90;;;8.10;99.90;;;;;;5113417;28;20236;-84
2023/03/29 08:30:23;;;;;;;10.43;10.13;;;8.20;99.90;;;;;;5131803;27;20263;-83
2023/03/29 08:32:55;;;;;;;10.23;9.93;;;8.30;99.90;;;;;;5130616;28;20722;-84
2023/03/29 08:35:23;;;;;;;10.20;9.90;;;8.50;99.90;;;;;;5132082;28;20293;-84
2023/03/29 08:37:50;;;;;;;10.20;9.90;;;8.60;99.90;;;;;;5132639;28;20236;-83
2023/03/29 08:40:22;;;;;;;10.37;10.07;;;8.70;99.90;;;;;;5132004;27;20213;-84
2023/03/29 08:43:15;;;;;;;9.93;9.63;;;8.90;99.90;;;;;;5131192;28;20217;-83
2023/03/29 08:45:55;;;;;;;9.97;9.67;;;9.20;99.90;;;;;;5131389;28;20225;-83
2023/03/29 08:48:34;;;;;;;10.00;9.70;;;9.40;99.90;;;;;;5130033;28;20232;-83
2023/03/29 08:51:14;;;;;;;9.97;9.67;;;9.60;99.90;;;;;;5130035;28;20366;-83
2023/03/29 08:53:51;;;;;;;10.20;9.90;;;9.80;99.90;;;;;;5130045;28;20212;-84
2023/03/29 08:56:29;;;;;;;10.00;9.70;;;10.10;99.90;;;;;;5128212;28;20282;-85
2023/03/29 08:58:58;;;;;;;10.00;9.70;;;10.30;99.90;;;;;;5127118;27;20236;-86
2023/03/29 09:01:36;;;;;;;9.90;9.60;;;10.60;99.90;;;;;;5126829;28;20223;-84
2023/03/29 09:04:13;;;;;;;9.80;9.50;;;10.90;99.90;;;;;;5126667;28;20232;-87
2023/03/29 09:06:42;;;;;;;9.50;9.20;;;11.20;99.90;;;;;;5127312;28;20284;-85
2023/03/29 09:12:11;;;;;;;9.47;9.17;;;11.20;99.90;;;;;;5127389;28;20267;-85
2023/03/29 09:14:57;;;;;;;9.83;9.53;;;11.20;99.90;;;;;;5127770;28;20240;-86
2023/03/29 09:17:43;;;;;;;9.60;9.30;;;11.20;99.90;;;;;;5129329;28;20295;-85
2023/03/29 09:20:30;;;;;;;9.67;9.37;;;11.30;99.90;;;;;;5128057;28;20325;-86
2023/03/29 09:23:19;;;;;;;9.50;9.20;;;11.30;99.90;;;;;;5139764;28;20217;-85
2023/03/29 09:28:50;;;;;;;9.90;9.60;;;11.40;99.90;;;;;;5127099;27;20220;-84
2023/03/29 09:31:23;;;;;;;9.73;9.43;;;11.40;99.90;;;;;;5129292;28;20228;-84
2023/03/29 09:33:57;;;;;;;9.73;9.43;;;11.50;99.90;;;;;;5127865;28;20252;-87
2023/03/29 09:39:23;;;;;;;10.00;9.70;;;12.00;99.90;;;;;;5128029;27;20319;-84
2023/03/29 09:42:03;;;;;;;9.93;9.63;;;12.10;99.90;;;;;;5129582;28;20290;-86
2023/03/29 09:44:42;;;;;;;9.90;9.60;;;12.20;99.90;;;;;;5130551;28;20255;-84
2023/03/29 09:47:19;;;;;;;9.70;9.40;;;12.30;99.90;;;;;;5130064;28;20216;-85
2023/03/29 09:49:55;;;;;;;9.90;9.60;;;12.40;99.90;;;;;;5129288;28;20244;-84
2023/03/29 09:52:27;;;;;;;9.70;9.40;;;12.60;99.90;;;;;;5130717;28;20255;-84
2023/03/29 09:54:56;;;;;;;9.80;9.50;;;12.50;99.90;;;;;;5130108;28;20240;-83
2023/03/29 09:57:26;;;;;;;10.10;9.80;;;12.40;99.90;;;;;;5130094;28;20233;-84
2023/03/29 09:59:56;;;;;;;9.53;9.23;;;12.40;99.90;;;;;;5127617;28;20237;-85
2023/03/29 10:02:25;;;;;;;10.00;9.70;;;12.40;99.90;;;;;;5127856;28;20232;-84
2023/03/29 10:04:57;;;;;;;9.90;9.60;;;12.30;99.90;;;;;;5126231;28;20224;-85
2023/03/29 10:07:43;;;;;;;10.00;9.70;;;12.20;99.90;;;;;;5126434;28;20212;-85
2023/03/29 10:10:20;;;;;;;9.97;9.67;;;12.20;99.90;;;;;;5125596;28;20232;-87
2023/03/29 10:12:51;;;;;;;9.83;9.53;;;12.20;99.90;;;;;;5125318;28;20224;-85
2023/03/29 10:15:21;;;;;;;9.90;9.60;;;12.20;99.90;;;;;;5126019;28;20256;-85
2023/03/29 10:17:49;;;;;;;9.73;9.43;;;12.30;99.90;;;;;;5125877;28;20232;-86
2023/03/29 10:20:19;;;;;;;10.03;9.73;;;12.50;99.90;;;;;;5119557;27;20241;-85
2023/03/29 10:22:56;;;;;;;9.93;9.63;;;12.60;99.90;;;;;;5120732;28;20244;-84
2023/03/29 10:25:37;;;;;;;9.70;9.40;;;12.80;99.90;;;;;;5109970;28;20315;-83
2023/03/29 10:28:12;;;;;;;9.67;9.37;;;12.90;99.90;;;;;;5109265;28;20321;-83
2023/03/29 10:30:41;;;;;;;9.63;9.33;;;12.90;99.90;;;;;;5108194;28;20239;-84
2023/03/29 10:33:20;;;;;;;9.50;9.20;;;12.80;99.90;;;;;;5106883;28;20233;-83
2023/03/29 10:35:49;;;;;;;9.60;9.30;;;12.80;99.90;;;;;;5107268;28;20256;-82
2023/03/29 10:38:27;;;;;;;9.40;9.10;;;12.60;99.90;;;;;;5107517;28;20257;-83
2023/03/29 10:41:06;;;;;;;9.60;9.30;;;12.50;99.90;;;;;;5104807;28;20245;-84
2023/03/29 10:43:44;;;;;;;9.77;9.47;;;12.60;99.90;;;;;;5103970;28;20265;-85
2023/03/29 10:46:22;;;;;;;9.73;9.43;;;12.60;99.90;;;;;;5105120;28;20221;-83
2023/03/29 10:48:52;;;;;;;9.60;9.30;;;12.70;99.90;;;;;;5105287;28;20221;-84
2023/03/29 10:51:21;;;;;;;9.57;9.27;;;12.70;99.90;;;;;;5107508;28;20241;-85
2023/03/29 10:53:59;;;;;;;9.73;9.43;;;12.80;99.90;;;;;;5109141;28;20247;-83
2023/03/29 10:56:43;;;;;;;10.00;9.70;;;12.80;99.90;;;;;;5112249;28;20225;-80
2023/03/29 10:59:33;;;;;;;9.67;9.37;;;12.90;99.90;;;;;;5119173;28;20244;-80
2023/03/29 11:02:55;;;;;;;9.80;9.50;;;13.00;99.90;;;;;;5115994;28;20243;-81
2023/03/29 11:05:35;;;;;;;9.87;9.57;;;13.00;99.90;;;;;;5113185;28;20316;-83
2023/03/29 11:08:23;;;;;;;9.90;9.60;;;13.10;99.90;;;;;;5111569;28;20245;-84
2023/03/29 11:11:07;;;;;;;9.90;9.60;;;13.10;99.90;;;;;;5110120;28;20236;-84
2023/03/29 11:13:46;;;;;;;9.80;9.50;;;13.20;99.90;;;;;;5109921;28;20315;-84
2023/03/29 11:16:27;;;;;;;9.93;9.63;;;13.20;99.90;;;;;;5108891;28;20232;-85
2023/03/29 11:19:39;;;;;;;9.80;9.50;;;13.20;99.90;;;;;;5107520;28;20239;-85
2023/03/29 11:22:15;;;;;;;9.83;9.53;;;13.20;99.90;;;;;;5104188;28;20217;-85
2023/03/29 11:25:03;;;;;;;9.90;9.60;;;13.40;99.90;;;;;;5108279;28;20225;-85
2023/03/29 11:27:43;;;;;;;9.87;9.57;;;13.60;99.90;;;;;;5108142;28;20257;-85
2023/03/29 11:30:20;;;;;;;10.00;9.70;;;13.90;99.90;;;;;;5109186;28;20230;-83
2023/03/29 11:32:59;;;;;;;10.00;9.70;;;13.90;99.90;;;;;;5111895;28;20213;-83
2023/03/29 11:35:44;;;;;;;10.13;9.83;;;13.80;99.90;;;;;;5111127;28;20225;-84
2023/03/29 11:38:23;;;;;;;9.90;9.60;;;14.00;99.90;;;;;;5114905;28;20213;-84
2023/03/29 11:41:10;;;;;;;10.17;9.87;;;14.00;99.90;;;;;;5122191;28;20244;-83
2023/03/29 11:43:47;;;;;;;10.30;10.00;;;14.00;99.90;;;;;;5121651;28;20205;-84
2023/03/29 11:46:26;;;;;;;10.20;9.90;;;14.00;99.90;;;;;;5122450;28;20204;-83
2023/03/29 11:49:04;;;;;;;10.40;10.10;;;14.20;99.90;;;;;;5123058;28;20241;-81
2023/03/29 11:51:38;;;;;;;10.60;10.30;;;14.30;99.90;;;;;;5122701;28;20231;-82
2023/03/29 11:54:14;;;;;;;10.63;10.33;;;14.20;99.90;;;;;;5122513;28;20202;-82
2023/03/29 11:56:51;;;;;;;10.48;10.18;;;14.40;99.90;;;;;;5122060;28;20217;-81
2023/03/29 11:59:31;;;;;;;10.40;10.10;;;14.40;99.90;;;;;;5120833;28;20267;-80
2023/03/29 12:02:09;;;;;;;10.50;10.20;;;14.40;99.90;;;;;;5121048;28;20270;-80
2023/03/29 12:04:47;;;;;;;10.37;10.07;;;14.40;99.90;;;;;;5121995;28;20213;-80
2023/03/29 12:07:19;;;;;;;10.30;10.00;;;14.30;99.90;;;;;;5118107;28;20293;-82
2023/03/29 12:09:55;;;;;;;10.50;10.20;;;14.30;99.90;;;;;;5116835;28;20297;-83
2023/03/29 12:12:33;;;;;;;10.57;10.27;;;14.10;99.90;;;;;;5116257;28;20277;-82
2023/03/29 12:15:11;;;;;;;10.30;10.00;;;14.00;99.90;;;;;;5111651;28;20213;-82
2023/03/29 12:17:50;;;;;;;10.73;10.43;;;14.10;99.90;;;;;;5110222;28;20292;-82
2023/03/29 12:20:28;;;;;;;10.73;10.43;;;14.20;99.90;;;;;;5112037;28;20233;-84
2023/03/29 12:22:57;;;;;;;10.57;10.27;;;14.30;99.90;;;;;;5112889;28;20229;-83
2023/03/29 12:25:35;;;;;;;10.37;10.07;;;14.20;99.90;;;;;;5112756;28;20253;-83
2023/03/29 12:28:23;;;;;;;10.10;9.80;;;14.30;99.90;;;;;;5110581;28;20234;-83
2023/03/29 12:31:17;;;;;;;10.50;10.20;;;14.50;99.90;;;;;;5110814;28;20702;-82
2023/03/29 12:34:13;;;;;;;10.05;9.75;;;14.60;99.90;;;;;;5110973;28;20209;-83
2023/03/29 12:37:00;;;;;;;10.32;10.02;;;14.60;99.90;;;;;;5110187;28;20289;-82
2023/03/29 12:39:31;;;;;;;10.20;9.90;;;14.60;99.90;;;;;;5110013;28;20245;-83
2023/03/29 12:42:11;;;;;;;10.20;9.90;;;14.60;99.90;;;;;;5111104;28;20230;-82
2023/03/29 12:44:40;;;;;;;10.30;10.00;;;14.50;99.90;;;;;;5109859;28;20289;-83
2023/03/29 12:47:19;;;;;;;10.18;9.88;;;14.50;99.90;;;;;;5110186;28;20230;-85
2023/03/29 12:49:47;;;;;;;10.63;10.33;;;14.30;99.90;;;;;;5111081;28;21079;-83
2023/03/29 12:52:26;;;;;;;10.70;10.40;;;14.20;99.90;;;;;;5110946;28;20247;-82
2023/03/29 12:54:56;;;;;;;10.60;10.30;;;14.10;99.90;;;;;;5114668;28;20222;-84
2023/03/29 12:57:40;;;;;;;10.73;10.43;;;14.10;99.90;;;;;;5114536;28;20255;-83
2023/03/29 13:00:38;;;;;;;10.83;10.53;;;14.30;99.90;;;;;;5112793;28;20233;-85
2023/03/29 13:03:32;;;;;;;10.43;10.13;;;14.50;99.90;;;;;;5116315;28;20229;-86
2023/03/29 13:06:02;;;;;;;10.57;10.27;;;14.50;99.90;;;;;;5116740;28;20263;-84
2023/03/29 13:08:40;;;;;;;10.48;10.18;;;14.60;99.90;;;;;;5129072;28;20217;-85
2023/03/29 13:11:26;;;;;;;10.18;9.88;;;14.70;99.90;;;;;;5110803;28;20236;-86
2023/03/29 13:13:56;;;;;;;10.07;9.77;;;14.90;99.90;;;;;;5106129;28;20253;-86
2023/03/29 13:16:34;;;;;;;10.40;10.10;;;14.80;99.90;;;;;;5125235;28;20217;-86
2023/03/29 13:19:30;;;;;;;10.40;10.10;;;14.80;99.90;;;;;;5110465;28;20229;-85
2023/03/29 13:22:18;;;;;;;10.82;10.52;;;15.10;99.90;;;;;;5106641;28;20284;-88
2023/03/29 13:25:04;;;;;;;10.90;10.60;;;14.90;99.90;;;;;;5107001;28;20226;-86
2023/03/29 13:27:42;;;;;;;10.65;10.35;;;15.00;99.90;;;;;;5106891;28;20228;-85
2023/03/29 13:30:31;;;;;;;10.35;10.05;;;15.00;99.90;;;;;;5109037;28;20225;-86
2023/03/29 13:33:16;;;;;;;10.05;9.75;;;14.60;99.90;;;;;;5107608;28;20236;-84
2023/03/29 13:36:00;;;;;;;10.27;9.98;;;14.70;99.90;;;;;;5107875;28;20265;-85
2023/03/29 13:41:28;;;;;;;10.40;10.10;;;14.70;99.90;;;;;;5105608;28;20222;-86
2023/03/29 13:43:57;;;;;;;10.40;10.10;;;14.90;99.90;;;;;;5105894;28;20241;-86
2023/03/29 13:46:39;;;;;;;10.48;10.18;;;15.00;99.90;;;;;;5104612;28;20286;-87
2023/03/29 13:49:23;;;;;;;10.60;10.30;;;15.10;99.90;;;;;;5104732;28;20226;-87
2023/03/29 13:55:01;;;;;;;10.90;10.60;;;15.20;99.90;;;;;;5104200;28;20255;-88